createdAt,value
2022-12-14T00:01:34.613Z,86.46
2022-12-14T00:04:02.364Z,86.18
2022-12-14T00:06:29.778Z,86.41
2022-12-14T00:08:57.515Z,86.19
2022-12-14T00:11:24.909Z,86.04
2022-12-14T00:13:52.283Z,85.78
2022-12-14T00:16:19.928Z,85.63
2022-12-14T00:18:47.712Z,85.75
2022-12-14T00:21:15.421Z,85.94
2022-12-14T00:23:43.087Z,85.83
2022-12-14T00:26:10.742Z,85.62
2022-12-14T00:28:38.449Z,85.44
2022-12-14T00:31:06.153Z,85.15
2022-12-14T00:33:33.936Z,84.98
2022-12-14T00:36:01.665Z,84.85
2022-12-14T00:38:29.574Z,84.97
2022-12-14T00:40:57.485Z,84.80
2022-12-14T00:43:24.920Z,84.67
2022-12-14T00:45:52.341Z,84.37
2022-12-14T00:48:19.752Z,84.39
2022-12-14T00:50:48.779Z,84.42
2022-12-14T00:53:16.348Z,84.35
2022-12-14T00:55:43.739Z,84.44
2022-12-14T00:58:11.183Z,84.38
2022-12-14T01:00:38.722Z,84.40
2022-12-14T01:03:06.194Z,84.39
2022-12-14T01:05:33.573Z,84.01
2022-12-14T01:08:01.272Z,84.14
2022-12-14T01:10:28.730Z,84.10
2022-12-14T01:12:56.138Z,84.22
2022-12-14T01:15:23.578Z,84.10
2022-12-14T01:17:50.970Z,84.33
2022-12-14T01:20:18.628Z,84.18
2022-12-14T01:22:46.185Z,84.37
2022-12-14T01:25:13.587Z,84.49
2022-12-14T01:27:41.006Z,84.62
2022-12-14T01:30:08.571Z,84.47
2022-12-14T01:32:35.985Z,84.43
2022-12-14T01:35:03.553Z,84.21
2022-12-14T01:37:31.039Z,84.08
2022-12-14T01:39:58.460Z,84.00
2022-12-14T01:42:25.843Z,84.09
2022-12-14T01:44:53.227Z,83.34
2022-12-14T01:47:20.692Z,83.04
2022-12-14T01:49:48.547Z,83.08
2022-12-14T01:52:16.311Z,83.48
2022-12-14T01:54:43.755Z,83.45
2022-12-14T01:57:16.751Z,83.72
2022-12-14T01:59:44.280Z,83.73
2022-12-14T02:02:11.871Z,83.74
2022-12-14T02:04:39.395Z,83.67
2022-12-14T02:07:06.825Z,83.70
2022-12-14T02:09:34.246Z,84.18
2022-12-14T02:12:01.991Z,84.12
2022-12-14T02:14:29.515Z,84.46
2022-12-14T02:16:57.058Z,84.45
2022-12-14T02:19:24.437Z,84.17
2022-12-14T02:21:51.952Z,84.33
2022-12-14T02:24:19.679Z,84.51
2022-12-14T02:26:47.343Z,84.43
2022-12-14T02:29:14.888Z,84.00
2022-12-14T02:31:42.533Z,84.06
2022-12-14T02:34:09.966Z,83.92
2022-12-14T02:36:37.512Z,83.92
2022-12-14T02:39:05.071Z,83.37
2022-12-14T02:41:32.719Z,83.89
2022-12-14T02:44:00.294Z,84.09
2022-12-14T02:46:27.695Z,83.76
2022-12-14T02:48:55.106Z,83.59
2022-12-14T02:51:22.495Z,83.75
2022-12-14T02:53:49.927Z,83.93
2022-12-14T02:56:17.566Z,83.78
2022-12-14T02:58:45.001Z,84.31
2022-12-14T03:01:12.541Z,84.63
2022-12-14T03:03:40.214Z,84.66
2022-12-14T03:06:07.737Z,84.50
2022-12-14T03:08:35.137Z,84.81
2022-12-14T03:11:02.606Z,84.72
2022-12-14T03:13:30.578Z,84.50
2022-12-14T03:15:58.365Z,84.72
2022-12-14T03:18:25.804Z,84.61
2022-12-14T03:20:53.315Z,85.28
2022-12-14T03:23:20.861Z,85.20
2022-12-14T03:25:48.762Z,85.45
2022-12-14T03:28:16.440Z,85.29
2022-12-14T03:31:00.081Z,85.33
2022-12-14T03:33:28.945Z,85.29
2022-12-14T03:35:56.581Z,85.45
2022-12-14T03:38:24.261Z,85.41
2022-12-14T03:40:51.680Z,85.47
2022-12-14T03:43:19.116Z,85.36
2022-12-14T03:45:46.557Z,84.95
2022-12-14T03:48:13.994Z,84.58
2022-12-14T03:50:41.399Z,84.53
2022-12-14T03:53:08.894Z,84.21
2022-12-14T03:55:36.835Z,84.50
2022-12-14T03:58:04.353Z,84.17
2022-12-14T04:00:31.749Z,84.87
2022-12-14T04:02:59.534Z,85.74
2022-12-14T04:05:27.233Z,86.31
2022-12-14T04:07:54.886Z,86.25
2022-12-14T04:10:22.481Z,86.37
2022-12-14T04:12:51.651Z,85.96
2022-12-14T04:15:19.588Z,85.43
2022-12-14T04:17:47.297Z,85.32
2022-12-14T04:20:15.184Z,85.09
2022-12-14T04:22:42.905Z,85.47
2022-12-14T04:25:10.288Z,85.71
2022-12-14T04:27:39.056Z,85.57
2022-12-14T04:30:06.969Z,85.97
2022-12-14T04:32:34.590Z,85.57
2022-12-14T04:35:02.002Z,85.10
2022-12-14T04:37:29.883Z,84.69
2022-12-14T04:39:57.511Z,84.28
2022-12-14T04:42:24.896Z,84.39
2022-12-14T04:44:52.534Z,85.40
2022-12-14T04:47:19.959Z,85.86
2022-12-14T04:49:49.172Z,86.42
2022-12-14T04:52:17.195Z,86.15
2022-12-14T04:54:45.175Z,85.98
2022-12-14T04:57:18.836Z,85.50
2022-12-14T04:59:46.640Z,85.11
2022-12-14T05:02:14.195Z,85.10
2022-12-14T05:04:41.823Z,84.89
2022-12-14T05:07:09.450Z,84.74
2022-12-14T05:09:36.875Z,84.77
2022-12-14T05:12:05.563Z,84.95
2022-12-14T05:14:34.908Z,84.81
2022-12-14T05:17:08.155Z,84.79
2022-12-14T05:19:37.024Z,84.49
2022-12-14T05:22:04.555Z,84.53
2022-12-14T05:24:32.290Z,84.56
2022-12-14T05:27:00.202Z,84.74
2022-12-14T05:29:27.836Z,84.86
2022-12-14T05:31:55.459Z,85.10
2022-12-14T05:34:23.406Z,85.09
2022-12-14T05:36:50.970Z,84.83
2022-12-14T05:39:18.642Z,84.85
2022-12-14T05:41:46.024Z,85.20
2022-12-14T05:44:13.408Z,85.30
2022-12-14T05:46:40.813Z,85.45
2022-12-14T05:49:08.187Z,85.63
2022-12-14T05:51:35.611Z,85.62
2022-12-14T05:54:03.240Z,85.65
2022-12-14T05:56:31.518Z,85.72
2022-12-14T05:59:02.567Z,85.86
2022-12-14T06:01:30.304Z,86.10
2022-12-14T06:03:57.841Z,85.94
2022-12-14T06:06:25.239Z,85.84
2022-12-14T06:08:52.756Z,86.13
2022-12-14T06:11:20.190Z,86.01
2022-12-14T06:13:47.613Z,85.79
2022-12-14T06:16:15.040Z,85.70
2022-12-14T06:18:42.464Z,85.61
2022-12-14T06:21:09.901Z,85.37
2022-12-14T06:23:37.410Z,85.11
2022-12-14T06:26:04.926Z,85.23
2022-12-14T06:28:32.468Z,85.29
2022-12-14T06:31:00.029Z,85.11
2022-12-14T06:33:28.521Z,85.00
2022-12-14T06:35:56.299Z,84.91
2022-12-14T06:38:23.740Z,84.87
2022-12-14T06:40:51.176Z,84.84
2022-12-14T06:43:18.571Z,84.69
2022-12-14T06:45:45.991Z,84.79
2022-12-14T06:48:13.420Z,84.63
2022-12-14T06:50:40.890Z,84.61
2022-12-14T06:53:08.289Z,84.38
2022-12-14T06:55:35.912Z,84.36
2022-12-14T06:58:04.449Z,84.05
2022-12-14T07:00:31.918Z,84.32
2022-12-14T07:02:59.690Z,84.32
2022-12-14T07:05:27.519Z,84.45
2022-12-14T07:07:54.970Z,84.62
2022-12-14T07:10:22.595Z,84.77
2022-12-14T07:12:49.973Z,84.75
2022-12-14T07:15:17.761Z,84.55
2022-12-14T07:17:45.144Z,84.45
2022-12-14T07:20:12.673Z,84.55
2022-12-14T07:22:40.210Z,84.40
2022-12-14T07:25:07.789Z,84.15
2022-12-14T07:27:35.186Z,83.77
2022-12-14T07:30:02.980Z,83.65
2022-12-14T07:32:30.394Z,83.76
2022-12-14T07:34:57.817Z,83.47
2022-12-14T07:37:25.229Z,83.19
2022-12-14T07:39:52.620Z,83.38
2022-12-14T07:42:20.296Z,83.40
2022-12-14T07:44:47.753Z,83.09
2022-12-14T07:47:16.805Z,82.44
2022-12-14T07:49:44.343Z,82.39
2022-12-14T07:52:11.975Z,82.63
2022-12-14T07:54:39.353Z,82.34
2022-12-14T07:57:06.739Z,82.09
2022-12-14T07:59:34.380Z,82.06
2022-12-14T08:02:01.974Z,82.10
2022-12-14T08:04:29.502Z,81.84
2022-12-14T08:08:20.503Z,81.73
2022-12-14T08:10:49.060Z,81.47
2022-12-14T08:13:16.723Z,81.26
2022-12-14T08:15:44.761Z,80.55
2022-12-14T08:18:12.733Z,80.33
2022-12-14T08:20:40.377Z,79.77
2022-12-14T08:23:08.288Z,78.70
2022-12-14T08:25:36.259Z,78.89
2022-12-14T08:28:04.100Z,77.65
2022-12-14T08:30:32.068Z,77.83
2022-12-14T08:32:59.863Z,77.64
2022-12-14T08:35:27.670Z,77.04
2022-12-14T08:37:55.624Z,76.66
2022-12-14T08:40:23.288Z,76.83
2022-12-14T08:42:50.876Z,76.54
2022-12-14T08:45:18.763Z,76.50
2022-12-14T08:47:46.398Z,75.76
2022-12-14T08:50:14.034Z,75.07
2022-12-14T08:52:41.590Z,75.79
2022-12-14T08:55:09.153Z,75.91
2022-12-14T08:57:36.740Z,75.51
2022-12-14T09:00:04.754Z,75.82
2022-12-14T09:02:32.601Z,75.62
2022-12-14T09:05:00.300Z,75.65
2022-12-14T09:07:29.369Z,75.70
2022-12-14T09:09:57.255Z,75.69
2022-12-14T09:12:25.208Z,75.92
2022-12-14T09:14:52.760Z,75.47
2022-12-14T09:17:20.677Z,74.47
2022-12-14T09:19:48.247Z,73.93
2022-12-14T09:22:15.948Z,74.58
2022-12-14T09:24:43.561Z,74.75
2022-12-14T09:27:11.144Z,72.66
2022-12-14T09:29:38.984Z,70.97
2022-12-14T09:32:06.617Z,70.55
2022-12-14T09:34:34.267Z,70.13
2022-12-14T09:37:01.917Z,68.95
2022-12-14T09:39:30.229Z,68.75
2022-12-14T09:42:08.867Z,68.59
2022-12-14T09:45:06.115Z,68.88
2022-12-14T09:47:52.800Z,68.44
2022-12-14T09:50:22.493Z,69.21
2022-12-14T09:52:59.396Z,68.94
2022-12-14T09:55:33.881Z,69.55
2022-12-14T09:58:09.717Z,68.91
2022-12-14T10:00:41.071Z,69.59
2022-12-14T10:03:34.422Z,69.63
2022-12-14T10:06:19.304Z,68.62
2022-12-14T10:09:14.286Z,67.07
2022-12-14T10:11:59.489Z,67.03
2022-12-14T10:14:58.669Z,66.31
2022-12-14T10:17:35.439Z,67.12
2022-12-14T10:20:10.652Z,67.17
2022-12-14T10:22:44.243Z,65.69
2022-12-14T10:25:33.740Z,65.10
2022-12-14T10:28:12.308Z,65.11
2022-12-14T10:30:44.595Z,65.72
2022-12-14T10:33:45.785Z,66.80
2022-12-14T10:36:30.160Z,63.91
2022-12-14T10:39:06.645Z,62.66
2022-12-14T10:41:49.630Z,62.05
2022-12-14T10:44:29.468Z,61.30
2022-12-14T10:47:06.119Z,60.72
2022-12-14T10:49:48.815Z,62.70
2022-12-14T10:52:21.398Z,63.06
2022-12-14T10:54:56.890Z,62.96
2022-12-14T10:57:26.687Z,63.16
2022-12-14T11:00:10.905Z,62.54
2022-12-14T11:02:42.645Z,63.97
2022-12-14T11:05:41.033Z,64.96
2022-12-14T11:08:09.645Z,65.84
2022-12-14T11:10:37.653Z,65.94
2022-12-14T11:13:18.935Z,66.11
2022-12-14T11:15:51.732Z,66.24
2022-12-14T11:18:19.364Z,66.30
2022-12-14T11:21:05.343Z,66.73
2022-12-14T11:23:39.712Z,66.52
2022-12-14T11:26:21.020Z,66.09
2022-12-14T11:28:52.260Z,66.53
2022-12-14T11:31:20.166Z,67.04
2022-12-14T11:33:49.974Z,67.95
2022-12-14T11:36:26.525Z,68.24
2022-12-14T11:38:55.889Z,69.22
2022-12-14T11:41:23.998Z,69.08
2022-12-14T11:44:20.231Z,68.69
2022-12-14T11:47:20.302Z,68.85
2022-12-14T11:49:54.196Z,68.85
2022-12-14T11:52:24.671Z,69.45
2022-12-14T11:54:52.189Z,69.83
2022-12-14T11:57:31.079Z,70.30
2022-12-14T12:00:01.748Z,70.45
2022-12-14T12:02:29.363Z,70.73
2022-12-14T12:05:05.119Z,71.02
2022-12-14T12:07:37.794Z,71.17
2022-12-14T12:10:16.265Z,71.03
2022-12-14T12:13:00.737Z,70.71
2022-12-14T12:15:41.095Z,70.72
2022-12-14T12:18:16.909Z,70.62
2022-12-14T12:20:54.188Z,70.76
2022-12-14T12:23:30.329Z,71.18
2022-12-14T12:26:00.535Z,70.25
2022-12-14T12:28:34.902Z,70.25
2022-12-14T12:31:11.220Z,70.73
2022-12-14T12:33:48.735Z,70.48
2022-12-14T12:36:23.521Z,69.93
2022-12-14T12:39:04.513Z,70.34
2022-12-14T12:41:38.316Z,70.36
2022-12-14T12:44:22.031Z,70.29
2022-12-14T12:49:50.151Z,71.86
2022-12-14T12:52:27.367Z,72.20
2022-12-14T12:55:01.991Z,72.29
2022-12-14T12:57:36.109Z,72.42
2022-12-14T13:00:05.106Z,72.62
2022-12-14T13:02:42.252Z,73.35
2022-12-14T13:05:45.019Z,73.66
2022-12-14T13:08:13.321Z,74.06
2022-12-14T13:11:02.400Z,74.31
2022-12-14T13:13:34.996Z,74.53
2022-12-14T13:16:26.285Z,74.53
2022-12-14T13:19:18.960Z,74.46
2022-12-14T13:21:52.209Z,74.54
2022-12-14T13:24:22.032Z,74.30
2022-12-14T13:27:04.129Z,74.26
2022-12-14T13:29:49.749Z,73.71
2022-12-14T13:32:51.635Z,73.95
2022-12-14T13:35:46.615Z,74.31
2022-12-14T13:38:34.348Z,74.49
2022-12-14T13:41:29.837Z,74.41
2022-12-14T13:44:09.435Z,74.71
2022-12-14T13:46:37.623Z,75.13
2022-12-14T13:49:14.653Z,75.59
2022-12-14T13:51:47.540Z,75.77
2022-12-14T13:54:35.416Z,76.44
2022-12-14T13:57:11.322Z,76.55
2022-12-14T13:59:45.543Z,76.68
2022-12-14T14:02:31.480Z,77.05
2022-12-14T14:05:14.634Z,77.29
2022-12-14T14:08:01.449Z,77.20
2022-12-14T14:10:39.380Z,77.71
2022-12-14T14:13:28.772Z,78.31
2022-12-14T14:16:27.461Z,78.51
2022-12-14T14:18:57.029Z,78.82
2022-12-14T14:22:06.231Z,79.52
2022-12-14T14:25:09.611Z,79.50
2022-12-14T14:27:39.487Z,80.62
2022-12-14T14:30:22.141Z,81.03
2022-12-14T14:32:50.450Z,81.47
2022-12-14T14:35:27.862Z,81.83
2022-12-14T14:38:30.955Z,82.53
2022-12-14T14:41:18.576Z,82.47
2022-12-14T14:43:51.756Z,83.22
2022-12-14T14:46:31.427Z,82.93
2022-12-14T14:49:00.596Z,83.48
2022-12-14T14:51:32.675Z,83.51
2022-12-14T14:54:56.180Z,82.92
2022-12-14T14:57:55.018Z,83.38
2022-12-14T15:00:22.928Z,83.54
2022-12-14T15:02:53.522Z,83.75
2022-12-14T15:05:43.365Z,84.15
2022-12-14T15:08:20.042Z,84.50
2022-12-14T15:10:50.347Z,85.05
2022-12-14T15:13:25.576Z,85.18
2022-12-14T15:15:54.045Z,85.67
2022-12-14T15:18:31.156Z,85.86
2022-12-14T15:21:10.964Z,86.05
2022-12-14T15:23:53.810Z,86.47
2022-12-14T15:26:26.831Z,86.81
2022-12-14T15:28:58.707Z,87.12
2022-12-14T15:31:36.062Z,86.85
2022-12-14T15:34:04.727Z,87.00
2022-12-14T15:36:35.954Z,87.65
2022-12-14T15:39:05.045Z,87.21
2022-12-14T15:41:33.701Z,87.59
2022-12-14T15:44:01.713Z,87.84
2022-12-14T15:46:36.301Z,88.03
2022-12-14T15:49:06.572Z,87.72
2022-12-14T15:51:40.412Z,87.90
2022-12-14T15:54:18.328Z,87.86
2022-12-14T15:56:53.180Z,87.75
2022-12-14T15:59:25.095Z,87.91
2022-12-14T16:02:06.589Z,87.91
2022-12-14T16:04:37.022Z,87.76
2022-12-14T16:07:15.022Z,87.63
2022-12-14T16:09:50.234Z,87.50
2022-12-14T16:12:27.362Z,87.50
2022-12-14T16:14:58.398Z,87.29
2022-12-14T16:17:35.976Z,87.47
2022-12-14T16:20:18.775Z,87.72
2022-12-14T16:22:58.972Z,87.56
2022-12-14T16:25:27.313Z,87.47
2022-12-14T16:27:57.232Z,87.30
2022-12-14T16:30:30.644Z,87.44
2022-12-14T16:33:17.694Z,87.58
2022-12-14T16:35:47.898Z,87.81
2022-12-14T16:38:18.531Z,87.75
2022-12-14T16:40:56.214Z,87.62
2022-12-14T16:43:39.798Z,87.55
2022-12-14T16:46:11.856Z,87.56
2022-12-14T16:48:45.522Z,87.74
2022-12-14T16:51:37.962Z,87.53
2022-12-14T16:54:24.137Z,87.65
2022-12-14T16:56:57.396Z,87.59
2022-12-14T16:59:38.564Z,87.64
2022-12-14T17:02:35.955Z,87.84
2022-12-14T17:05:13.183Z,87.65
2022-12-14T17:07:41.628Z,87.72
2022-12-14T17:10:21.661Z,87.84
2022-12-14T17:12:51.408Z,87.78
2022-12-14T17:15:22.000Z,87.82
2022-12-14T17:17:53.267Z,87.92
2022-12-14T17:20:25.308Z,87.80
2022-12-14T17:22:55.816Z,88.08
2022-12-14T17:25:25.183Z,88.11
2022-12-14T17:27:54.877Z,88.22
2022-12-14T17:30:26.676Z,88.16
2022-12-14T17:32:55.667Z,88.29
2022-12-14T17:35:29.486Z,88.21
2022-12-14T17:37:58.504Z,88.31
2022-12-14T17:40:27.846Z,88.47
2022-12-14T17:42:58.614Z,88.66
2022-12-14T17:45:29.885Z,88.52
2022-12-14T17:47:58.105Z,88.46
2022-12-14T17:50:26.143Z,88.70
2022-12-14T17:52:54.247Z,88.81
2022-12-14T17:55:24.868Z,88.85
2022-12-14T17:57:54.105Z,88.96
2022-12-14T18:00:29.299Z,88.96
2022-12-14T18:03:05.602Z,89.17
2022-12-14T18:05:33.824Z,89.27
2022-12-14T18:08:02.521Z,89.32
2022-12-14T18:10:32.060Z,89.44
2022-12-14T18:12:59.646Z,89.67
2022-12-14T18:15:49.637Z,89.89
2022-12-14T18:18:22.639Z,89.79
2022-12-14T18:20:59.452Z,90.28
2022-12-14T18:23:28.625Z,90.17
2022-12-14T18:25:58.824Z,90.27
2022-12-14T18:28:26.911Z,90.29
2022-12-14T18:31:03.014Z,90.42
2022-12-14T18:33:31.253Z,90.47
2022-12-14T18:36:10.988Z,90.41
2022-12-14T18:38:39.277Z,90.24
2022-12-14T18:41:06.993Z,90.20
2022-12-14T18:43:41.723Z,90.14
2022-12-14T18:46:12.145Z,90.15
2022-12-14T18:48:40.601Z,90.66
2022-12-14T18:51:13.652Z,90.47
2022-12-14T18:53:42.422Z,90.21
2022-12-14T18:56:12.002Z,90.00
2022-12-14T18:58:41.162Z,90.22
2022-12-14T19:01:19.177Z,90.30
2022-12-14T19:03:47.032Z,90.28
2022-12-14T19:06:43.459Z,90.33
2022-12-14T19:09:05.446Z,89.99
2022-12-14T19:11:39.322Z,90.01
2022-12-14T19:14:07.664Z,89.99
2022-12-14T19:16:36.852Z,89.93
2022-12-14T19:19:04.894Z,89.91
2022-12-14T19:21:32.531Z,89.95
2022-12-14T19:24:01.586Z,89.83
2022-12-14T19:26:30.648Z,89.70
2022-12-14T19:29:01.170Z,89.65
2022-12-14T19:31:29.188Z,89.75
2022-12-14T19:33:58.015Z,89.74
2022-12-14T19:36:26.013Z,89.82
2022-12-14T19:38:54.635Z,89.64
2022-12-14T19:41:22.526Z,89.67
2022-12-14T19:43:50.296Z,89.47
2022-12-14T19:46:18.480Z,89.56
2022-12-14T19:48:46.409Z,89.38
2022-12-14T19:51:15.479Z,89.45
2022-12-14T19:53:45.322Z,89.31
2022-12-14T19:56:17.195Z,89.42
2022-12-14T19:58:48.792Z,89.32
2022-12-14T20:01:17.318Z,89.47
2022-12-14T20:03:45.548Z,89.40
2022-12-14T20:06:16.163Z,89.29
2022-12-14T20:08:43.740Z,89.36
2022-12-14T20:11:11.586Z,89.28
2022-12-14T20:13:39.785Z,89.43
2022-12-14T20:16:07.748Z,89.45
2022-12-14T20:18:35.578Z,89.41
2022-12-14T20:21:06.047Z,89.41
2022-12-14T20:23:35.433Z,89.50
2022-12-14T20:26:20.745Z,89.29
2022-12-14T20:29:08.367Z,89.25
2022-12-14T20:31:36.941Z,89.25
2022-12-14T20:34:06.665Z,89.23
2022-12-14T20:36:35.738Z,89.33
2022-12-14T20:39:05.777Z,89.30
2022-12-14T20:41:36.372Z,89.26
2022-12-14T20:44:08.329Z,89.25
2022-12-14T20:46:41.632Z,89.37
2022-12-14T20:49:15.259Z,89.04
2022-12-14T20:51:44.429Z,89.22
2022-12-14T20:54:16.044Z,89.12
2022-12-14T20:56:44.532Z,89.28
2022-12-14T20:59:17.636Z,89.33
2022-12-14T21:01:50.117Z,89.42
2022-12-14T21:04:21.252Z,89.38
2022-12-14T21:06:49.116Z,89.16
2022-12-14T21:09:16.696Z,89.05
2022-12-14T21:11:47.249Z,89.06
2022-12-14T21:14:15.944Z,89.10
2022-12-14T21:16:44.035Z,89.19
2022-12-14T21:19:12.818Z,89.10
2022-12-14T21:21:41.878Z,89.07
2022-12-14T21:24:12.835Z,89.13
2022-12-14T21:26:45.790Z,89.37
2022-12-14T21:29:17.424Z,89.23
2022-12-14T21:31:47.133Z,89.04
2022-12-14T21:34:20.674Z,88.95
2022-12-14T21:36:48.515Z,89.01
2022-12-14T21:39:17.727Z,89.09
2022-12-14T21:41:46.512Z,89.05
2022-12-14T21:44:14.957Z,89.35
2022-12-14T21:46:43.192Z,89.25
2022-12-14T21:49:11.461Z,89.31
2022-12-14T21:51:39.500Z,89.22
2022-12-14T21:54:07.112Z,89.02
2022-12-14T21:56:37.041Z,89.05
2022-12-14T21:59:04.635Z,89.25
2022-12-14T22:01:32.462Z,89.28
2022-12-14T22:04:00.153Z,89.24
2022-12-14T22:06:27.777Z,89.32
2022-12-14T22:08:55.383Z,89.39
2022-12-14T22:11:23.043Z,89.44
2022-12-14T22:13:50.897Z,89.43
2022-12-14T22:16:18.834Z,89.30
2022-12-14T22:18:46.789Z,89.38
2022-12-14T22:21:14.795Z,89.66
2022-12-14T22:23:43.806Z,89.41
2022-12-14T22:26:11.768Z,89.64
2022-12-14T22:28:40.961Z,89.74
2022-12-14T22:31:08.626Z,89.87
2022-12-14T22:33:36.244Z,89.78
2022-12-14T22:36:04.119Z,89.97
2022-12-14T22:38:32.284Z,89.95
2022-12-14T22:41:06.802Z,89.76
2022-12-14T22:43:37.229Z,90.05
2022-12-14T22:46:05.657Z,90.37
2022-12-14T22:48:36.321Z,90.14
2022-12-14T22:51:07.309Z,90.34
2022-12-14T22:53:34.955Z,90.30
2022-12-14T22:56:21.476Z,90.16
2022-12-14T22:58:54.265Z,90.07
2022-12-14T23:01:22.494Z,90.04
2022-12-14T23:04:00.024Z,90.02
2022-12-14T23:06:28.905Z,89.96
2022-12-14T23:08:56.966Z,90.02
2022-12-14T23:11:24.622Z,89.94
2022-12-14T23:13:52.246Z,89.97
2022-12-14T23:16:20.367Z,89.92
2022-12-14T23:18:48.166Z,90.05
2022-12-14T23:21:16.012Z,90.15
2022-12-14T23:23:45.584Z,90.14
2022-12-14T23:26:13.378Z,89.99
2022-12-14T23:28:41.068Z,89.82
2022-12-14T23:31:09.443Z,89.78
2022-12-14T23:33:37.697Z,90.03
2022-12-14T23:36:05.896Z,90.02
2022-12-14T23:38:33.530Z,89.93
2022-12-14T23:41:02.422Z,89.85
2022-12-14T23:43:30.511Z,89.74
2022-12-14T23:45:59.061Z,89.93
2022-12-14T23:48:27.025Z,89.76
2022-12-14T23:50:54.615Z,89.99
2022-12-14T23:53:22.322Z,89.99
2022-12-14T23:55:50.114Z,90.02
2022-12-14T23:58:18.007Z,90.12
